sensor_id;sensor_type;location;lat;lon;timestamp;pressure;altitude;pressure_sealevel;temperature;humidity
73422;BME280;61637;47.760;-122.022;2022-12-10T00:00:00;100575.783;;;3.1;55.1
73422;BME280;61637;47.760;-122.022;2022-12-10T00:02:00;100575.783;;;3.0;55.1
73422;BME280;61637;47.760;-122.022;2022-12-10T00:04:01;100575.783;;;3.0;55.1
73422;BME280;61637;47.760;-122.022;2022-12-10T00:06:01;100575.783;;;2.9;55.1
73422;BME280;61637;47.760;-122.022;2022-12-10T00:08:00;100575.783;;;2.9;55.1
73422;BME280;61637;47.760;-122.022;2022-12-10T00:10:00;100575.783;;;2.8;55.1
73422;BME280;61637;47.760;-122.022;2022-12-10T00:12:00;100575.783;;;2.9;55.1
73422;BME280;61637;47.760;-122.022;2022-12-10T00:14:00;100575.783;;;2.9;55.1
73422;BME280;61637;47.760;-122.022;2022-12-10T00:16:01;100237.144;;;2.8;55.1
73422;BME280;61637;47.760;-122.022;2022-12-10T00:18:00;100237.144;;;2.8;55.1
73422;BME280;61637;47.760;-122.022;2022-12-10T00:20:00;100237.144;;;2.8;55.1
73422;BME280;61637;47.760;-122.022;2022-12-10T00:22:00;100237.144;;;2.8;55.1
73422;BME280;61637;47.760;-122.022;2022-12-10T00:24:01;100237.144;;;2.7;55.1
73422;BME280;61637;47.760;-122.022;2022-12-10T00:26:02;100237.144;;;2.7;55.1
73422;BME280;61637;47.760;-122.022;2022-12-10T00:28:00;100237.144;;;2.7;55.1
73422;BME280;61637;47.760;-122.022;2022-12-10T00:30:00;100237.144;;;2.7;55.1
73422;BME280;61637;47.760;-122.022;2022-12-10T00:32:00;100237.144;;;2.7;55.1
73422;BME280;61637;47.760;-122.022;2022-12-10T00:34:01;100237.144;;;2.7;55.1
73422;BME280;61637;47.760;-122.022;2022-12-10T00:36:02;100237.144;;;2.6;55.1
73422;BME280;61637;47.760;-122.022;2022-12-10T00:38:00;100237.144;;;2.6;55.1
73422;BME280;61637;47.760;-122.022;2022-12-10T00:40:01;100237.144;;;2.6;55.1
73422;BME280;61637;47.760;-122.022;2022-12-10T00:42:01;100237.144;;;2.6;55.1
73422;BME280;61637;47.760;-122.022;2022-12-10T00:44:00;100237.144;;;2.6;55.1
73422;BME280;61637;47.760;-122.022;2022-12-10T00:46:01;100237.144;;;2.6;55.1
73422;BME280;61637;47.760;-122.022;2022-12-10T00:48:00;100237.144;;;2.6;55.1
73422;BME280;61637;47.760;-122.022;2022-12-10T00:50:00;100237.144;;;2.6;55.1
73422;BME280;61637;47.760;-122.022;2022-12-10T00:52:00;100237.144;;;2.6;55.1
73422;BME280;61637;47.760;-122.022;2022-12-10T00:54:00;100237.144;;;2.6;55.1
73422;BME280;61637;47.760;-122.022;2022-12-10T00:56:00;100237.144;;;2.6;55.1
73422;BME280;61637;47.760;-122.022;2022-12-10T00:58:00;100237.144;;;2.6;55.1
73422;BME280;61637;47.760;-122.022;2022-12-10T01:00:00;100237.144;;;2.5;55.1
73422;BME280;61637;47.760;-122.022;2022-12-10T01:02:00;100237.144;;;2.5;55.1
73422;BME280;61637;47.760;-122.022;2022-12-10T01:04:02;100237.144;;;2.5;55.1
73422;BME280;61637;47.760;-122.022;2022-12-10T01:06:07;100237.144;;;2.5;55.1
73422;BME280;61637;47.760;-122.022;2022-12-10T01:08:00;100237.144;;;2.6;55.1
73422;BME280;61637;47.760;-122.022;2022-12-10T01:10:00;100237.144;;;2.5;55.1
73422;BME280;61637;47.760;-122.022;2022-12-10T01:12:01;100237.144;;;2.6;55.1
73422;BME280;61637;47.760;-122.022;2022-12-10T01:14:00;100237.144;;;2.6;55.1
73422;BME280;61637;47.760;-122.022;2022-12-10T01:16:01;100237.144;;;2.6;55.1
73422;BME280;61637;47.760;-122.022;2022-12-10T01:18:00;100237.144;;;2.6;55.1
73422;BME280;61637;47.760;-122.022;2022-12-10T01:20:00;100237.144;;;2.6;55.1
73422;BME280;61637;47.760;-122.022;2022-12-10T01:22:00;100237.144;;;2.6;55.1
73422;BME280;61637;47.760;-122.022;2022-12-10T01:24:00;100237.144;;;2.6;55.1
73422;BME280;61637;47.760;-122.022;2022-12-10T01:26:01;100237.144;;;2.7;55.1
73422;BME280;61637;47.760;-122.022;2022-12-10T01:28:00;100237.144;;;2.7;55.1
73422;BME280;61637;47.760;-122.022;2022-12-10T01:30:00;100237.144;;;2.7;55.1
73422;BME280;61637;47.760;-122.022;2022-12-10T01:32:00;100237.144;;;2.7;55.1
73422;BME280;61637;47.760;-122.022;2022-12-10T01:34:00;100237.144;;;2.7;55.1
73422;BME280;61637;47.760;-122.022;2022-12-10T01:36:02;100237.144;;;2.7;55.1
73422;BME280;61637;47.760;-122.022;2022-12-10T01:38:00;100237.144;;;2.8;55.1
73422;BME280;61637;47.760;-122.022;2022-12-10T01:40:00;100237.144;;;2.8;55.1
73422;BME280;61637;47.760;-122.022;2022-12-10T01:42:00;100237.144;;;2.9;55.1
73422;BME280;61637;47.760;-122.022;2022-12-10T01:44:02;100237.144;;;2.9;55.1
73422;BME280;61637;47.760;-122.022;2022-12-10T01:46:00;100237.144;;;3.0;55.1
73422;BME280;61637;47.760;-122.022;2022-12-10T01:48:00;100237.144;;;3.1;55.1
73422;BME280;61637;47.760;-122.022;2022-12-10T01:50:00;100237.144;;;3.1;62.2
73422;BME280;61637;47.760;-122.022;2022-12-10T01:52:01;100237.144;;;3.1;60.9
73422;BME280;61637;47.760;-122.022;2022-12-10T01:54:01;100237.144;;;3.1;59.8
73422;BME280;61637;47.760;-122.022;2022-12-10T01:56:00;100237.144;;;2.9;59.2
73422;BME280;61637;47.760;-122.022;2022-12-10T01:58:00;100237.144;;;2.9;59.1
73422;BME280;61637;47.760;-122.022;2022-12-10T02:00:01;100237.144;;;2.8;60.2
73422;BME280;61637;47.760;-122.022;2022-12-10T02:02:01;100237.144;;;2.8;60.0
73422;BME280;61637;47.760;-122.022;2022-12-10T02:04:04;100237.144;;;2.7;59.9
73422;BME280;61637;47.760;-122.022;2022-12-10T02:06:03;100237.144;;;2.7;61.5
73422;BME280;61637;47.760;-122.022;2022-12-10T02:08:02;100237.144;;;2.8;61.2
73422;BME280;61637;47.760;-122.022;2022-12-10T02:10:02;100237.144;;;2.8;61.6
73422;BME280;61637;47.760;-122.022;2022-12-10T02:12:02;100237.144;;;2.8;63.0
73422;BME280;61637;47.760;-122.022;2022-12-10T02:14:02;100237.144;;;2.8;64.1
73422;BME280;61637;47.760;-122.022;2022-12-10T02:16:02;100237.144;;;2.9;66.1
73422;BME280;61637;47.760;-122.022;2022-12-10T02:18:02;100237.144;;;3.0;65.5
73422;BME280;61637;47.760;-122.022;2022-12-10T02:20:03;100237.144;;;3.1;63.6
73422;BME280;61637;47.760;-122.022;2022-12-10T02:22:00;100237.144;;;3.0;63.3
73422;BME280;61637;47.760;-122.022;2022-12-10T02:24:01;100237.144;;;2.9;63.0
73422;BME280;61637;47.760;-122.022;2022-12-10T02:26:03;100237.144;;;2.9;64.7
73422;BME280;61637;47.760;-122.022;2022-12-10T02:28:02;100237.144;;;2.9;61.5
73422;BME280;61637;47.760;-122.022;2022-12-10T02:30:00;100237.144;;;2.8;61.6
73422;BME280;61637;47.760;-122.022;2022-12-10T02:32:02;100237.144;;;2.8;64.7
73422;BME280;61637;47.760;-122.022;2022-12-10T02:34:01;100237.144;;;2.9;63.3
73422;BME280;61637;47.760;-122.022;2022-12-10T02:36:00;100237.144;;;3.0;63.3
73422;BME280;61637;47.760;-122.022;2022-12-10T02:38:02;100237.144;;;3.1;66.0
73422;BME280;61637;47.760;-122.022;2022-12-10T02:40:01;99898.50499999999;;;3.2;64.1
73422;BME280;61637;47.760;-122.022;2022-12-10T02:42:00;100237.144;;;3.2;63.5
73422;BME280;61637;47.760;-122.022;2022-12-10T02:44:02;100237.144;;;3.2;63.1
73422;BME280;61637;47.760;-122.022;2022-12-10T02:46:02;100237.144;;;3.2;61.3
73422;BME280;61637;47.760;-122.022;2022-12-10T02:48:01;100237.144;;;3.2;62.2
73422;BME280;61637;47.760;-122.022;2022-12-10T02:50:00;99898.50499999999;;;3.1;61.8
73422;BME280;61637;47.760;-122.022;2022-12-10T02:52:06;99898.50499999999;;;3.1;61.1
73422;BME280;61637;47.760;-122.022;2022-12-10T02:54:01;99898.50499999999;;;3.1;61.1
73422;BME280;61637;47.760;-122.022;2022-12-10T02:56:06;99898.50499999999;;;3.0;61.3
73422;BME280;61637;47.760;-122.022;2022-12-10T02:58:03;99898.50499999999;;;3.0;61.3
73422;BME280;61637;47.760;-122.022;2022-12-10T03:00:05;99898.50499999999;;;2.9;61.1
73422;BME280;61637;47.760;-122.022;2022-12-10T03:02:02;99898.50499999999;;;2.9;60.7
73422;BME280;61637;47.760;-122.022;2022-12-10T03:04:01;99898.50499999999;;;2.9;61.4
73422;BME280;61637;47.760;-122.022;2022-12-10T03:06:03;99898.50499999999;;;2.9;60.6
73422;BME280;61637;47.760;-122.022;2022-12-10T03:08:02;99898.50499999999;;;2.9;59.4
73422;BME280;61637;47.760;-122.022;2022-12-10T03:10:02;99898.50499999999;;;2.9;58.1
73422;BME280;61637;47.760;-122.022;2022-12-10T03:12:02;99898.50499999999;;;2.9;58.2
73422;BME280;61637;47.760;-122.022;2022-12-10T03:14:02;99898.50499999999;;;2.8;58.0
73422;BME280;61637;47.760;-122.022;2022-12-10T03:16:01;99898.50499999999;;;2.8;59.1
73422;BME280;61637;47.760;-122.022;2022-12-10T03:18:02;99898.50499999999;;;2.8;60.3
73422;BME280;61637;47.760;-122.022;2022-12-10T03:20:00;99898.50499999999;;;2.9;60.0
73422;BME280;61637;47.760;-122.022;2022-12-10T03:22:00;99898.50499999999;;;2.8;60.0
73422;BME280;61637;47.760;-122.022;2022-12-10T03:24:00;99898.50499999999;;;2.8;60.0
73422;BME280;61637;47.760;-122.022;2022-12-10T03:26:00;99898.50499999999;;;2.8;60.0
73422;BME280;61637;47.760;-122.022;2022-12-10T03:28:00;99898.50499999999;;;2.8;60.0
73422;BME280;61637;47.760;-122.022;2022-12-10T03:30:00;99898.50499999999;;;2.8;60.0
73422;BME280;61637;47.760;-122.022;2022-12-10T03:32:00;99898.50499999999;;;2.8;60.0
73422;BME280;61637;47.760;-122.022;2022-12-10T03:34:00;99898.50499999999;;;2.8;60.0
73422;BME280;61637;47.760;-122.022;2022-12-10T03:36:00;99898.50499999999;;;2.8;60.0
73422;BME280;61637;47.760;-122.022;2022-12-10T03:38:00;99898.50499999999;;;2.8;60.0
73422;BME280;61637;47.760;-122.022;2022-12-10T03:40:01;99898.50499999999;;;2.8;60.0
73422;BME280;61637;47.760;-122.022;2022-12-10T03:42:00;99898.50499999999;;;2.8;60.0
73422;BME280;61637;47.760;-122.022;2022-12-10T03:44:00;99898.50499999999;;;2.8;60.0
73422;BME280;61637;47.760;-122.022;2022-12-10T03:46:00;99898.50499999999;;;2.8;60.0
73422;BME280;61637;47.760;-122.022;2022-12-10T03:48:00;99898.50499999999;;;2.7;60.0
73422;BME280;61637;47.760;-122.022;2022-12-10T03:50:00;99898.50499999999;;;2.7;60.0
73422;BME280;61637;47.760;-122.022;2022-12-10T03:52:01;99898.50499999999;;;2.8;60.0
73422;BME280;61637;47.760;-122.022;2022-12-10T03:54:00;99898.50499999999;;;2.7;60.0
73422;BME280;61637;47.760;-122.022;2022-12-10T03:56:00;99898.50499999999;;;2.7;60.0
73422;BME280;61637;47.760;-122.022;2022-12-10T03:58:00;99898.50499999999;;;2.7;60.0
73422;BME280;61637;47.760;-122.022;2022-12-10T04:00:00;99898.50499999999;;;2.7;60.0
73422;BME280;61637;47.760;-122.022;2022-12-10T04:02:00;99898.50499999999;;;2.7;60.0
73422;BME280;61637;47.760;-122.022;2022-12-10T04:04:00;99898.50499999999;;;2.7;60.0
73422;BME280;61637;47.760;-122.022;2022-12-10T04:06:01;99898.50499999999;;;2.8;60.0
73422;BME280;61637;47.760;-122.022;2022-12-10T04:08:00;99898.50499999999;;;2.7;60.0
73422;BME280;61637;47.760;-122.022;2022-12-10T04:10:00;99898.50499999999;;;2.8;60.0
73422;BME280;61637;47.760;-122.022;2022-12-10T04:12:00;99898.50499999999;;;2.8;60.0
73422;BME280;61637;47.760;-122.022;2022-12-10T04:14:00;99898.50499999999;;;2.8;60.0
73422;BME280;61637;47.760;-122.022;2022-12-10T04:16:00;99898.50499999999;;;2.8;60.0
73422;BME280;61637;47.760;-122.022;2022-12-10T04:18:00;99898.50499999999;;;2.8;60.0
73422;BME280;61637;47.760;-122.022;2022-12-10T04:20:00;99898.50499999999;;;2.7;60.0
73422;BME280;61637;47.760;-122.022;2022-12-10T04:22:00;99898.50499999999;;;2.7;60.0
73422;BME280;61637;47.760;-122.022;2022-12-10T04:24:00;99898.50499999999;;;2.7;60.0
73422;BME280;61637;47.760;-122.022;2022-12-10T04:26:00;99898.50499999999;;;2.7;60.0
73422;BME280;61637;47.760;-122.022;2022-12-10T04:28:00;99898.50499999999;;;2.7;60.0
73422;BME280;61637;47.760;-122.022;2022-12-10T04:30:00;99898.50499999999;;;2.7;60.0
73422;BME280;61637;47.760;-122.022;2022-12-10T04:32:00;99898.50499999999;;;2.7;60.0
73422;BME280;61637;47.760;-122.022;2022-12-10T04:34:00;99898.50499999999;;;2.7;60.0
73422;BME280;61637;47.760;-122.022;2022-12-10T04:36:00;99898.50499999999;;;2.7;60.0
73422;BME280;61637;47.760;-122.022;2022-12-10T04:38:00;99898.50499999999;;;2.7;60.0
73422;BME280;61637;47.760;-122.022;2022-12-10T04:40:01;99898.50499999999;;;2.7;60.0
73422;BME280;61637;47.760;-122.022;2022-12-10T04:42:00;99898.50499999999;;;2.7;60.0
73422;BME280;61637;47.760;-122.022;2022-12-10T04:44:00;99898.50499999999;;;2.7;60.0
73422;BME280;61637;47.760;-122.022;2022-12-10T04:46:00;99898.50499999999;;;2.7;60.0
73422;BME280;61637;47.760;-122.022;2022-12-10T04:48:00;99898.50499999999;;;2.7;60.0
73422;BME280;61637;47.760;-122.022;2022-12-10T04:50:00;99898.50499999999;;;2.7;60.0
73422;BME280;61637;47.760;-122.022;2022-12-10T04:52:01;99898.50499999999;;;2.7;60.0
73422;BME280;61637;47.760;-122.022;2022-12-10T04:54:00;99898.50499999999;;;2.7;60.0
73422;BME280;61637;47.760;-122.022;2022-12-10T04:56:00;99898.50499999999;;;2.7;60.0
73422;BME280;61637;47.760;-122.022;2022-12-10T04:58:00;99898.50499999999;;;2.7;60.0
73422;BME280;61637;47.760;-122.022;2022-12-10T05:00:00;99898.50499999999;;;2.7;60.0
73422;BME280;61637;47.760;-122.022;2022-12-10T05:02:00;99898.50499999999;;;2.7;60.0
73422;BME280;61637;47.760;-122.022;2022-12-10T05:04:01;99898.50499999999;;;2.7;60.0
73422;BME280;61637;47.760;-122.022;2022-12-10T05:06:00;99898.50499999999;;;2.7;60.0
73422;BME280;61637;47.760;-122.022;2022-12-10T05:08:00;99898.50499999999;;;2.7;60.0
73422;BME280;61637;47.760;-122.022;2022-12-10T05:10:00;99898.50499999999;;;2.6;60.0
73422;BME280;61637;47.760;-122.022;2022-12-10T05:12:00;99898.50499999999;;;2.6;60.0
73422;BME280;61637;47.760;-122.022;2022-12-10T05:14:00;99898.50499999999;;;2.7;60.0
73422;BME280;61637;47.760;-122.022;2022-12-10T05:16:01;99898.50499999999;;;2.7;60.0
73422;BME280;61637;47.760;-122.022;2022-12-10T05:18:00;99898.50499999999;;;2.7;60.0
73422;BME280;61637;47.760;-122.022;2022-12-10T05:20:00;99898.50499999999;;;2.7;60.0
73422;BME280;61637;47.760;-122.022;2022-12-10T05:22:00;99898.50499999999;;;2.7;60.0
73422;BME280;61637;47.760;-122.022;2022-12-10T05:24:00;99898.50499999999;;;2.7;60.0
73422;BME280;61637;47.760;-122.022;2022-12-10T05:26:01;99898.50499999999;;;2.7;60.0
73422;BME280;61637;47.760;-122.022;2022-12-10T05:28:00;99898.50499999999;;;2.7;60.0
73422;BME280;61637;47.760;-122.022;2022-12-10T05:30:00;99898.50499999999;;;2.7;60.0
73422;BME280;61637;47.760;-122.022;2022-12-10T05:32:00;99898.50499999999;;;2.7;60.0
73422;BME280;61637;47.760;-122.022;2022-12-10T05:34:00;99898.50499999999;;;2.7;60.0
73422;BME280;61637;47.760;-122.022;2022-12-10T05:36:01;99898.50499999999;;;2.7;60.0
73422;BME280;61637;47.760;-122.022;2022-12-10T05:38:00;99898.50499999999;;;2.7;60.0
73422;BME280;61637;47.760;-122.022;2022-12-10T05:40:00;99898.50499999999;;;2.6;60.0
73422;BME280;61637;47.760;-122.022;2022-12-10T05:42:00;99898.50499999999;;;2.6;60.0
73422;BME280;61637;47.760;-122.022;2022-12-10T05:44:00;99898.50499999999;;;2.6;60.0
73422;BME280;61637;47.760;-122.022;2022-12-10T05:46:01;99898.50499999999;;;2.6;60.0
73422;BME280;61637;47.760;-122.022;2022-12-10T05:48:00;99898.50499999999;;;2.6;60.0
73422;BME280;61637;47.760;-122.022;2022-12-10T05:50:00;99559.866;;;2.6;60.0
73422;BME280;61637;47.760;-122.022;2022-12-10T05:52:00;99559.866;;;2.7;60.0
73422;BME280;61637;47.760;-122.022;2022-12-10T05:54:01;99559.866;;;2.7;60.0
73422;BME280;61637;47.760;-122.022;2022-12-10T05:56:01;99559.866;;;2.7;60.0
73422;BME280;61637;47.760;-122.022;2022-12-10T05:58:00;99559.866;;;2.7;60.0
73422;BME280;61637;47.760;-122.022;2022-12-10T06:00:00;99559.866;;;2.6;60.0
73422;BME280;61637;47.760;-122.022;2022-12-10T06:02:00;99559.866;;;2.6;60.0
73422;BME280;61637;47.760;-122.022;2022-12-10T06:04:01;99559.866;;;2.6;60.0
73422;BME280;61637;47.760;-122.022;2022-12-10T06:06:00;99559.866;;;2.7;60.0
73422;BME280;61637;47.760;-122.022;2022-12-10T06:08:00;99559.866;;;2.7;60.0
73422;BME280;61637;47.760;-122.022;2022-12-10T06:10:00;99559.866;;;2.7;60.0
73422;BME280;61637;47.760;-122.022;2022-12-10T06:12:00;99559.866;;;2.7;60.0
73422;BME280;61637;47.760;-122.022;2022-12-10T06:14:00;99559.866;;;2.6;60.0
73422;BME280;61637;47.760;-122.022;2022-12-10T06:16:03;99559.866;;;2.7;60.0
73422;BME280;61637;47.760;-122.022;2022-12-10T06:18:00;99559.866;;;2.7;60.0
73422;BME280;61637;47.760;-122.022;2022-12-10T06:20:00;99559.866;;;2.7;60.0
73422;BME280;61637;47.760;-122.022;2022-12-10T06:22:00;99559.866;;;2.7;60.0
73422;BME280;61637;47.760;-122.022;2022-12-10T06:24:00;99559.866;;;2.7;60.0
73422;BME280;61637;47.760;-122.022;2022-12-10T06:26:03;99559.866;;;2.7;60.0
73422;BME280;61637;47.760;-122.022;2022-12-10T06:28:01;99559.866;;;2.8;60.0
73422;BME280;61637;47.760;-122.022;2022-12-10T06:30:00;99559.866;;;2.7;60.0
73422;BME280;61637;47.760;-122.022;2022-12-10T06:32:00;99559.866;;;2.7;60.0
73422;BME280;61637;47.760;-122.022;2022-12-10T06:34:00;99559.866;;;2.7;60.0
73422;BME280;61637;47.760;-122.022;2022-12-10T06:36:02;99559.866;;;2.8;60.0
73422;BME280;61637;47.760;-122.022;2022-12-10T06:38:00;99559.866;;;2.8;60.0
73422;BME280;61637;47.760;-122.022;2022-12-10T06:40:01;99559.866;;;2.8;60.0
73422;BME280;61637;47.760;-122.022;2022-12-10T06:42:00;99559.866;;;2.8;60.0
73422;BME280;61637;47.760;-122.022;2022-12-10T06:44:00;99559.866;;;2.7;60.0
73422;BME280;61637;47.760;-122.022;2022-12-10T06:46:03;99559.866;;;2.7;60.0
73422;BME280;61637;47.760;-122.022;2022-12-10T06:48:00;99559.866;;;2.7;60.0
73422;BME280;61637;47.760;-122.022;2022-12-10T06:50:00;99559.866;;;2.7;60.0
73422;BME280;61637;47.760;-122.022;2022-12-10T06:52:00;99559.866;;;2.7;60.0
73422;BME280;61637;47.760;-122.022;2022-12-10T06:54:00;99559.866;;;2.7;60.0
73422;BME280;61637;47.760;-122.022;2022-12-10T06:56:00;99559.866;;;2.7;60.0
73422;BME280;61637;47.760;-122.022;2022-12-10T06:58:00;99559.866;;;2.7;60.0
73422;BME280;61637;47.760;-122.022;2022-12-10T07:00:00;99559.866;;;2.7;60.0
73422;BME280;61637;47.760;-122.022;2022-12-10T07:02:00;99559.866;;;2.7;60.0
73422;BME280;61637;47.760;-122.022;2022-12-10T07:04:00;99559.866;;;2.7;60.0
73422;BME280;61637;47.760;-122.022;2022-12-10T07:06:01;99559.866;;;2.7;60.0
73422;BME280;61637;47.760;-122.022;2022-12-10T07:08:00;99559.866;;;2.7;60.0
73422;BME280;61637;47.760;-122.022;2022-12-10T07:10:00;99559.866;;;2.7;60.0
73422;BME280;61637;47.760;-122.022;2022-12-10T07:12:00;99559.866;;;2.7;60.0
73422;BME280;61637;47.760;-122.022;2022-12-10T07:14:00;99559.866;;;2.7;60.0
73422;BME280;61637;47.760;-122.022;2022-12-10T07:16:00;99559.866;;;2.6;60.0
73422;BME280;61637;47.760;-122.022;2022-12-10T07:18:00;99559.866;;;2.6;60.0
73422;BME280;61637;47.760;-122.022;2022-12-10T07:20:00;99559.866;;;2.6;60.0
73422;BME280;61637;47.760;-122.022;2022-12-10T07:22:00;99559.866;;;2.6;60.0
73422;BME280;61637;47.760;-122.022;2022-12-10T07:24:01;99559.866;;;2.6;60.0
73422;BME280;61637;47.760;-122.022;2022-12-10T07:26:00;99559.866;;;2.6;60.0
73422;BME280;61637;47.760;-122.022;2022-12-10T07:28:01;99559.866;;;2.6;60.0
73422;BME280;61637;47.760;-122.022;2022-12-10T07:30:00;99559.866;;;2.7;60.0
73422;BME280;61637;47.760;-122.022;2022-12-10T07:32:00;99559.866;;;2.7;60.0
73422;BME280;61637;47.760;-122.022;2022-12-10T07:34:00;99559.866;;;2.6;60.0
73422;BME280;61637;47.760;-122.022;2022-12-10T07:36:02;99559.866;;;2.6;60.0
73422;BME280;61637;47.760;-122.022;2022-12-10T07:38:00;99559.866;;;2.6;60.0
73422;BME280;61637;47.760;-122.022;2022-12-10T07:40:00;99559.866;;;2.6;60.0
73422;BME280;61637;47.760;-122.022;2022-12-10T07:42:00;99559.866;;;2.6;60.0
73422;BME280;61637;47.760;-122.022;2022-12-10T07:44:00;99559.866;;;2.6;60.0
73422;BME280;61637;47.760;-122.022;2022-12-10T07:46:02;99559.866;;;2.6;60.0
73422;BME280;61637;47.760;-122.022;2022-12-10T07:48:00;99559.866;;;2.6;60.0
73422;BME280;61637;47.760;-122.022;2022-12-10T07:50:00;99559.866;;;2.6;60.0
73422;BME280;61637;47.760;-122.022;2022-12-10T07:52:00;99559.866;;;2.6;60.0
73422;BME280;61637;47.760;-122.022;2022-12-10T07:54:00;99559.866;;;2.6;60.0
73422;BME280;61637;47.760;-122.022;2022-12-10T07:56:00;99559.866;;;2.6;60.0
73422;BME280;61637;47.760;-122.022;2022-12-10T07:58:00;99559.866;;;2.6;60.0
73422;BME280;61637;47.760;-122.022;2022-12-10T08:00:00;99559.866;;;2.6;60.0
73422;BME280;61637;47.760;-122.022;2022-12-10T08:02:00;99559.866;;;2.6;60.0
73422;BME280;61637;47.760;-122.022;2022-12-10T08:04:00;99559.866;;;2.6;60.0
73422;BME280;61637;47.760;-122.022;2022-12-10T08:06:01;99559.866;;;2.6;60.0
73422;BME280;61637;47.760;-122.022;2022-12-10T08:08:00;99559.866;;;2.6;60.0
73422;BME280;61637;47.760;-122.022;2022-12-10T08:10:00;99559.866;;;2.6;60.0
73422;BME280;61637;47.760;-122.022;2022-12-10T08:12:00;99559.866;;;2.7;60.0
73422;BME280;61637;47.760;-122.022;2022-12-10T08:14:00;99559.866;;;2.7;60.0
73422;BME280;61637;47.760;-122.022;2022-12-10T08:16:01;99559.866;;;2.6;60.0
73422;BME280;61637;47.760;-122.022;2022-12-10T08:18:00;99559.866;;;2.6;60.0
73422;BME280;61637;47.760;-122.022;2022-12-10T08:20:00;99559.866;;;2.6;60.0
73422;BME280;61637;47.760;-122.022;2022-12-10T08:22:00;99559.866;;;2.6;60.0
73422;BME280;61637;47.760;-122.022;2022-12-10T08:24:00;99559.866;;;2.6;60.0
73422;BME280;61637;47.760;-122.022;2022-12-10T08:26:02;99559.866;;;2.6;60.0
73422;BME280;61637;47.760;-122.022;2022-12-10T08:28:00;99559.866;;;2.6;60.0
73422;BME280;61637;47.760;-122.022;2022-12-10T08:30:00;99559.866;;;2.5;60.0
73422;BME280;61637;47.760;-122.022;2022-12-10T08:32:00;99559.866;;;2.6;60.0
73422;BME280;61637;47.760;-122.022;2022-12-10T08:34:00;99559.866;;;2.7;60.0
73422;BME280;61637;47.760;-122.022;2022-12-10T08:36:00;99559.866;;;2.7;60.0
73422;BME280;61637;47.760;-122.022;2022-12-10T08:38:00;99559.866;;;2.7;60.0
73422;BME280;61637;47.760;-122.022;2022-12-10T08:40:00;99559.866;;;2.7;60.0
73422;BME280;61637;47.760;-122.022;2022-12-10T08:42:00;99559.866;;;2.7;60.0
73422;BME280;61637;47.760;-122.022;2022-12-10T08:44:00;99559.866;;;2.7;60.0
73422;BME280;61637;47.760;-122.022;2022-12-10T08:46:00;99559.866;;;2.7;60.0
73422;BME280;61637;47.760;-122.022;2022-12-10T08:48:00;99559.866;;;2.7;60.0
73422;BME280;61637;47.760;-122.022;2022-12-10T08:50:00;99559.866;;;2.6;60.0
73422;BME280;61637;47.760;-122.022;2022-12-10T08:52:00;99559.866;;;2.7;60.0
73422;BME280;61637;47.760;-122.022;2022-12-10T08:54:00;99559.866;;;2.7;60.0
73422;BME280;61637;47.760;-122.022;2022-12-10T08:56:00;99559.866;;;2.7;60.0
73422;BME280;61637;47.760;-122.022;2022-12-10T08:58:00;99559.866;;;2.6;60.0
73422;BME280;61637;47.760;-122.022;2022-12-10T09:00:00;99559.866;;;2.7;60.0
73422;BME280;61637;47.760;-122.022;2022-12-10T09:02:00;99559.866;;;2.6;60.0
73422;BME280;61637;47.760;-122.022;2022-12-10T09:04:00;99559.866;;;2.6;60.0
73422;BME280;61637;47.760;-122.022;2022-12-10T09:06:02;99559.866;;;2.7;60.0
73422;BME280;61637;47.760;-122.022;2022-12-10T09:08:01;99559.866;;;2.7;60.0
73422;BME280;61637;47.760;-122.022;2022-12-10T09:10:00;99559.866;;;2.7;60.0
73422;BME280;61637;47.760;-122.022;2022-12-10T09:12:00;99559.866;;;2.7;60.0
73422;BME280;61637;47.760;-122.022;2022-12-10T09:14:00;99559.866;;;2.7;60.0
73422;BME280;61637;47.760;-122.022;2022-12-10T09:16:00;99559.866;;;2.7;60.0
73422;BME280;61637;47.760;-122.022;2022-12-10T09:18:00;99559.866;;;2.7;60.0
73422;BME280;61637;47.760;-122.022;2022-12-10T09:20:00;99559.866;;;2.7;60.0
73422;BME280;61637;47.760;-122.022;2022-12-10T09:22:00;99559.866;;;2.7;60.0
73422;BME280;61637;47.760;-122.022;2022-12-10T09:24:00;99559.866;;;2.7;60.0
73422;BME280;61637;47.760;-122.022;2022-12-10T09:26:00;99559.866;;;2.7;60.0
73422;BME280;61637;47.760;-122.022;2022-12-10T09:28:00;99559.866;;;2.8;60.0
73422;BME280;61637;47.760;-122.022;2022-12-10T09:30:00;99559.866;;;2.8;60.0
73422;BME280;61637;47.760;-122.022;2022-12-10T09:32:00;99559.866;;;2.8;60.0
73422;BME280;61637;47.760;-122.022;2022-12-10T09:34:00;99559.866;;;2.8;60.0
73422;BME280;61637;47.760;-122.022;2022-12-10T09:36:02;99559.866;;;2.8;60.0
73422;BME280;61637;47.760;-122.022;2022-12-10T09:38:00;99559.866;;;2.8;60.0
73422;BME280;61637;47.760;-122.022;2022-12-10T09:40:00;99559.866;;;2.8;60.0
73422;BME280;61637;47.760;-122.022;2022-12-10T09:42:04;99559.866;;;2.8;60.0
73422;BME280;61637;47.760;-122.022;2022-12-10T09:44:02;99559.866;;;2.8;60.0
73422;BME280;61637;47.760;-122.022;2022-12-10T09:46:03;99559.866;;;2.8;60.0
73422;BME280;61637;47.760;-122.022;2022-12-10T09:48:02;99559.866;;;2.8;60.0
73422;BME280;61637;47.760;-122.022;2022-12-10T09:50:02;99559.866;;;2.8;60.0
73422;BME280;61637;47.760;-122.022;2022-12-10T09:52:02;99559.866;;;2.8;60.0
73422;BME280;61637;47.760;-122.022;2022-12-10T09:54:01;99559.866;;;2.8;60.0
73422;BME280;61637;47.760;-122.022;2022-12-10T09:56:01;99559.866;;;2.8;60.0
73422;BME280;61637;47.760;-122.022;2022-12-10T09:58:00;99559.866;;;2.8;60.0
73422;BME280;61637;47.760;-122.022;2022-12-10T10:00:02;99559.866;;;2.9;60.0
73422;BME280;61637;47.760;-122.022;2022-12-10T10:02:03;99559.866;;;2.8;60.0
73422;BME280;61637;47.760;-122.022;2022-12-10T10:04:00;99559.866;;;2.9;60.0